Private Wetterstation Wechselburg
Wetterdaten: Samstag, 28.06.2014
Datum Zeit Temp. +2m Bodentemp. Temp.+5cm Temp. Wind Windchill X Diff Temp. Feuchte +2m Feuchte +5cm Sonnenschein Luftdruck Regen Wind Richtung Richtung Sonnenschein UV Taupunkt Windchill Windben
28.06.2014 00:00 14,3 C 25,5 C 14,4 C 14,0 C 13,4 C 0,0 C 83 % 84 % 0 % 1013,5 hPa 0,0 l/m 0,0 km/h (0 Bft) O-NO 67 0 min 0,0 UV-I 11,5 C 13,4 C 0,0 km/h (0 Bft)
28.06.2014 00:05 14,1 C 25,5 C 14,4 C 13,9 C 13,5 C 0,0 C 84 % 84 % 0 % 1013,5 hPa 0,0 l/m 0,0 km/h (0 Bft) O-NO 67 0 min 0,0 UV-I 11,4 C 13,5 C 0,0 km/h (0 Bft)
28.06.2014 00:10 14,0 C 25,5 C 14,4 C 13,8 C 13,5 C 0,0 C 84 % 85 % 0 % 1013,5 hPa 0,0 l/m 0,0 km/h (0 Bft) O-NO 67 0 min 0,0 UV-I 11,3 C 13,5 C 0,0 km/h (0 Bft)
28.06.2014 00:15 13,9 C 25,5 C 14,4 C 13,8 C 13,5 C 0,0 C 84 % 85 % 0 % 1013,5 hPa 0,0 l/m 0,0 km/h (0 Bft) O-NO 67 0 min 0,0 UV-I 11,2 C 13,5 C 0,0 km/h (0 Bft)
28.06.2014 00:20 13,9 C 25,5 C 14,5 C 13,8 C 13,5 C 0,0 C 84 % 85 % 0 % 1013,2 hPa 0,0 l/m 0,0 km/h (0 Bft) W-SW 247 0 min 0,0 UV-I 11,2 C 13,5 C 0,0 km/h (0 Bft)
28.06.2014 00:25 13,7 C 25,5 C 14,5 C 13,6 C 13,4 C 0,0 C 84 % 85 % 0 % 1013,2 hPa 0,0 l/m 0,0 km/h (0 Bft) W-SW 247 0 min 0,0 UV-I 11,0 C 13,4 C 0,0 km/h (0 Bft)
28.06.2014 00:30 13,7 C 25,5 C 14,3 C 13,6 C 13,3 C 0,0 C 84 % 85 % 0 % 1013,2 hPa 0,0 l/m 0,0 km/h (0 Bft) W 270 0 min 0,0 UV-I 11,0 C 13,3 C 0,0 km/h (0 Bft)
28.06.2014 00:35 13,6 C 25,5 C 14,3 C 13,5 C 13,3 C 0,0 C 84 % 85 % 0 % 1013,2 hPa 0,0 l/m 0,0 km/h (0 Bft) O-NO 67 0 min 0,0 UV-I 10,9 C 13,3 C 0,0 km/h (0 Bft)
28.06.2014 00:41 13,5 C 25,5 C 14,3 C 13,5 C 13,5 C 0,0 C 84 % 85 % 0 % 1013,1 hPa 0,0 l/m 0,0 km/h (0 Bft) N 0 0 min 0,0 UV-I 10,8 C 13,5 C 0,0 km/h (0 Bft)
28.06.2014 01:01 13,3 C 25,5 C 14,3 C 13,5 C 13,5 C 0,2 C 85 % 85 % 0 % 1012,6 hPa 0,0 l/m 0,0 km/h (0 Bft) W-SW 247 0 min 0,0 UV-I 10,8 C 13,5 C 0,0 km/h (0 Bft)
28.06.2014 01:05 13,3 C 25,5 C 14,3 C 13,5 C 13,5 C 0,2 C 85 % 85 % 0 % 1012,6 hPa 0,0 l/m 0,0 km/h (0 Bft) W-SW 247 0 min 0,0 UV-I 10,8 C 13,5 C 0,0 km/h (0 Bft)
28.06.2014 01:10 13,3 C 25,4 C 14,2 C 13,5 C 13,5 C 0,2 C 85 % 85 % 0 % 1012,6 hPa 0,0 l/m 0,0 km/h (0 Bft) SW 225 0 min 0,0 UV-I 10,8 C 13,5 C 0,0 km/h (0 Bft)
28.06.2014 01:15 13,2 C 25,5 C 14,2 C 13,5 C 13,5 C 0,3 C 85 % 85 % 0 % 1012,6 hPa 0,0 l/m 0,0 km/h (0 Bft) N-NW 337 0 min 0,0 UV-I 10,7 C 13,5 C 0,0 km/h (0 Bft)
28.06.2014 01:20 13,3 C 25,5 C 14,3 C 13,5 C 13,5 C 0,2 C 85 % 86 % 0 % 1012,6 hPa 0,0 l/m 0,0 km/h (0 Bft) SW 225 0 min 0,0 UV-I 10,8 C 13,5 C 0,0 km/h (0 Bft)
28.06.2014 01:25 13,3 C 25,4 C 14,3 C 13,5 C 13,5 C 0,2 C 85 % 85 % 0 % 1012,6 hPa 0,0 l/m 0,0 km/h (0 Bft) NW 315 0 min 0,0 UV-I 10,8 C 13,5 C 0,0 km/h (0 Bft)
28.06.2014 01:30 13,2 C 25,4 C 14,2 C 13,6 C 13,6 C 0,4 C 85 % 86 % 0 % 1012,6 hPa 0,0 l/m 0,0 km/h (0 Bft) W-SW 247 0 min 0,0 UV-I 10,7 C 13,6 C 0,0 km/h (0 Bft)
28.06.2014 01:35 13,2 C 25,4 C 14,3 C 13,6 C 13,6 C 0,4 C 85 % 86 % 0 % 1012,6 hPa 0,0 l/m 0,0 km/h (0 Bft) W-SW 247 0 min 0,0 UV-I 10,7 C 13,6 C 0,0 km/h (0 Bft)
28.06.2014 01:40 13,1 C 25,4 C 14,3 C 13,7 C 13,7 C 0,6 C 85 % 86 % 0 % 1012,5 hPa 0,0 l/m 0,0 km/h (0 Bft) W-SW 247 0 min 0,0 UV-I 10,6 C 13,7 C 0,0 km/h (0 Bft)
28.06.2014 01:45 13,1 C 25,4 C 14,3 C 13,7 C 13,7 C 0,6 C 85 % 86 % 0 % 1012,5 hPa 0,0 l/m 0,0 km/h (0 Bft) W-SW 247 0 min 0,0 UV-I 10,6 C 13,7 C 0,0 km/h (0 Bft)
28.06.2014 01:50 13,1 C 25,4 C 14,3 C 13,7 C 13,7 C 0,6 C 85 % 86 % 0 % 1012,5 hPa 0,0 l/m 0,0 km/h (0 Bft) SO 135 0 min 0,0 UV-I 10,6 C 13,7 C 0,0 km/h (0 Bft)
28.06.2014 01:55 13,1 C 25,4 C 14,3 C 13,8 C 13,8 C 0,7 C 86 % 86 % 0 % 1012,5 hPa 0,0 l/m 0,0 km/h (0 Bft) S 180 0 min 0,0 UV-I 10,8 C 13,8 C 0,0 km/h (0 Bft)
28.06.2014 02:00 13,1 C 25,4 C 14,3 C 13,9 C 13,9 C 0,8 C 85 % 86 % 0 % 1012,7 hPa 0,0 l/m 1,4 km/h (1 Bft) W 270 0 min 0,0 UV-I 10,6 C 13,9 C 0,0 km/h (0 Bft)
28.06.2014 02:05 13,1 C 25,3 C 14,2 C 14,0 C 14,0 C 0,9 C 85 % 85 % 0 % 1012,7 hPa 0,0 l/m 1,9 km/h (1 Bft) N-NO 22 0 min 0,0 UV-I 10,6 C 14,0 C 0,0 km/h (0 Bft)
28.06.2014 02:10 13,3 C 25,3 C 14,4 C 14,3 C 14,3 C 1,0 C 85 % 85 % 0 % 1012,7 hPa 0,0 l/m 0,6 km/h (0 Bft) SO 135 0 min 0,0 UV-I 10,8 C 14,3 C 0,0 km/h (0 Bft)
28.06.2014 02:15 13,6 C 25,3 C 14,5 C 14,7 C 14,7 C 1,1 C 84 % 85 % 0 % 1012,7 hPa 0,0 l/m 0,3 km/h (0 Bft) O-SO 112 0 min 0,0 UV-I 10,9 C 14,7 C 0,0 km/h (0 Bft)
28.06.2014 02:20 14,0 C 25,3 C 14,7 C 15,0 C 15,0 C 1,0 C 83 % 84 % 0 % 1012,4 hPa 0,0 l/m 0,2 km/h (0 Bft) O-NO 67 0 min 0,0 UV-I 11,2 C 15,0 C 0,0 km/h (0 Bft)
28.06.2014 02:25 14,1 C 25,3 C 14,7 C 15,0 C 15,0 C 0,9 C 83 % 84 % 0 % 1012,4 hPa 0,0 l/m 0,2 km/h (0 Bft) O-NO 67 0 min 0,0 UV-I 11,3 C 15,0 C 0,0 km/h (0 Bft)
28.06.2014 02:30 14,3 C 25,3 C 14,7 C 15,0 C 15,0 C 0,7 C 83 % 84 % 0 % 1012,4 hPa 0,0 l/m 0,0 km/h (0 Bft) O-NO 67 0 min 0,0 UV-I 11,5 C 15,0 C 0,0 km/h (0 Bft)
28.06.2014 02:35 14,4 C 25,3 C 14,7 C 15,0 C 15,0 C 0,6 C 82 % 83 % 0 % 1012,4 hPa 0,0 l/m 0,0 km/h (0 Bft) O 90 0 min 0,0 UV-I 11,4 C 15,0 C 0,0 km/h (0 Bft)
28.06.2014 02:40 14,5 C 25,3 C 14,6 C 14,9 C 14,9 C 0,4 C 82 % 83 % 0 % 1012,6 hPa 0,0 l/m 0,0 km/h (0 Bft) O-NO 67 0 min 0,0 UV-I 11,5 C 14,9 C 0,0 km/h (0 Bft)
28.06.2014 02:45 14,4 C 25,3 C 14,6 C 14,9 C 14,9 C 0,5 C 81 % 83 % 0 % 1012,6 hPa 0,0 l/m 0,0 km/h (0 Bft) O-NO 67 0 min 0,0 UV-I 11,2 C 14,9 C 0,0 km/h (0 Bft)
28.06.2014 02:50 14,5 C 25,3 C 14,5 C 14,8 C 14,8 C 0,3 C 81 % 83 % 0 % 1012,6 hPa 0,0 l/m 0,0 km/h (0 Bft) O 90 0 min 0,0 UV-I 11,3 C 14,8 C 0,0 km/h (0 Bft)
28.06.2014 02:55 14,5 C 25,3 C 14,5 C 14,8 C 14,8 C 0,3 C 81 % 83 % 0 % 1012,6 hPa 0,0 l/m 0,0 km/h (0 Bft) NO 45 0 min 0,0 UV-I 11,3 C 14,8 C 0,0 km/h (0 Bft)
28.06.2014 03:00 14,5 C 25,3 C 14,5 C 14,7 C 14,7 C 0,2 C 81 % 83 % 0 % 1012,3 hPa 0,0 l/m 0,0 km/h (0 Bft) N-NW 337 0 min 0,0 UV-I 11,3 C 14,7 C 0,0 km/h (0 Bft)
28.06.2014 03:05 14,5 C 25,3 C 14,6 C 14,7 C 14,7 C 0,2 C 81 % 83 % 0 % 1012,3 hPa 0,0 l/m 0,0 km/h (0 Bft) N-NW 337 0 min 0,0 UV-I 11,3 C 14,7 C 0,0 km/h (0 Bft)
28.06.2014 03:10 14,5 C 25,3 C 14,6 C 14,6 C 14,6 C 0,1 C 81 % 83 % 0 % 1012,3 hPa 0,0 l/m 0,0 km/h (0 Bft) W-SW 247 0 min 0,0 UV-I 11,3 C 14,6 C 0,0 km/h (0 Bft)
28.06.2014 03:15 14,5 C 25,3 C 14,7 C 14,5 C 14,5 C 0,0 C 81 % 83 % 0 % 1012,3 hPa 0,0 l/m 0,0 km/h (0 Bft) SW 225 0 min 0,0 UV-I 11,3 C 14,5 C 0,0 km/h (0 Bft)
28.06.2014 03:20 14,5 C 25,2 C 14,6 C 14,5 C 14,4 C 0,0 C 81 % 83 % 0 % 1012,5 hPa 0,0 l/m 0,0 km/h (0 Bft) W-SW 247 0 min 0,0 UV-I 11,3 C 14,4 C 0,0 km/h (0 Bft)
28.06.2014 03:25 14,4 C 25,2 C 14,5 C 14,4 C 14,3 C 0,0 C 81 % 83 % 0 % 1012,5 hPa 0,0 l/m 0,0 km/h (0 Bft) W 270 0 min 0,0 UV-I 11,2 C 14,3 C 0,0 km/h (0 Bft)
28.06.2014 03:30 14,5 C 25,2 C 14,4 C 14,4 C 14,1 C 0,0 C 81 % 83 % 0 % 1012,5 hPa 0,0 l/m 0,0 km/h (0 Bft) S 180 0 min 0,0 UV-I 11,3 C 14,1 C 0,0 km/h (0 Bft)
28.06.2014 03:35 14,4 C 25,2 C 14,4 C 14,3 C 14,1 C 0,0 C 81 % 84 % 0 % 1012,5 hPa 0,0 l/m 0,0 km/h (0 Bft) S-SO 157 0 min 0,0 UV-I 11,2 C 14,1 C 0,0 km/h (0 Bft)
28.06.2014 03:40 14,3 C 25,2 C 14,3 C 14,2 C 14,1 C 0,0 C 81 % 84 % 0 % 1011,6 hPa 0,0 l/m 0,0 km/h (0 Bft) O-NO 67 0 min 0,0 UV-I 11,1 C 14,1 C 0,0 km/h (0 Bft)
28.06.2014 03:45 14,2 C 25,2 C 14,3 C 14,1 C 14,0 C 0,0 C 81 % 84 % 0 % 1011,6 hPa 0,0 l/m 0,0 km/h (0 Bft) W-SW 247 0 min 0,0 UV-I 11,0 C 14,0 C 0,0 km/h (0 Bft)
28.06.2014 03:50 14,3 C 25,2 C 14,3 C 14,2 C 13,9 C 0,0 C 81 % 84 % 0 % 1011,6 hPa 0,0 l/m 0,0 km/h (0 Bft) W-SW 247 0 min 0,0 UV-I 11,1 C 13,9 C 0,0 km/h (0 Bft)
28.06.2014 03:55 14,1 C 25,2 C 14,3 C 14,0 C 13,8 C 0,0 C 81 % 84 % 0 % 1011,6 hPa 0,0 l/m 0,0 km/h (0 Bft) O 90 0 min 0,0 UV-I 10,9 C 13,8 C 0,0 km/h (0 Bft)
28.06.2014 04:00 14,1 C 25,2 C 14,3 C 14,0 C 13,7 C 0,0 C 81 % 84 % 0 % 1011,9 hPa 0,0 l/m 0,0 km/h (0 Bft) O-NO 67 0 min 0,0 UV-I 10,9 C 13,7 C 0,0 km/h (0 Bft)
28.06.2014 04:05 14,0 C 25,2 C 14,2 C 13,9 C 13,7 C 0,0 C 81 % 84 % 0 % 1011,9 hPa 0,0 l/m 0,0 km/h (0 Bft) O-NO 67 0 min 0,0 UV-I 10,8 C 13,7 C 0,0 km/h (0 Bft)
28.06.2014 04:10 14,0 C 25,2 C 14,1 C 13,9 C 13,6 C 0,0 C 81 % 84 % 0 % 1011,9 hPa 0,0 l/m 0,0 km/h (0 Bft) S-SO 157 0 min 0,0 UV-I 10,8 C 13,6 C 0,0 km/h (0 Bft)
28.06.2014 04:15 13,9 C 25,2 C 14,1 C 13,8 C 13,5 C 0,0 C 81 % 84 % 0 % 1011,9 hPa 0,0 l/m 0,0 km/h (0 Bft) SW 225 0 min 0,0 UV-I 10,7 C 13,5 C 0,0 km/h (0 Bft)
28.06.2014 04:20 13,9 C 25,2 C 14,1 C 13,8 C 13,5 C 0,0 C 82 % 85 % 0 % 1012,0 hPa 0,0 l/m 0,0 km/h (0 Bft) W-SW 247 0 min 0,0 UV-I 10,9 C 13,5 C 0,0 km/h (0 Bft)
28.06.2014 04:25 13,9 C 25,2 C 14,1 C 13,7 C 13,4 C 0,0 C 83 % 85 % 0 % 1012,0 hPa 0,0 l/m 0,0 km/h (0 Bft) W-NW 292 0 min 0,0 UV-I 11,1 C 13,4 C 0,0 km/h (0 Bft)
28.06.2014 04:30 13,7 C 25,2 C 14,0 C 13,6 C 13,4 C 0,0 C 83 % 85 % 0 % 1012,0 hPa 0,0 l/m 0,0 km/h (0 Bft) W-SW 247 0 min 0,0 UV-I 10,9 C 13,4 C 1,9 km/h (1 Bft)
28.06.2014 04:35 13,6 C 25,2 C 14,1 C 13,5 C 13,4 C 0,0 C 83 % 85 % 0 % 1012,0 hPa 0,0 l/m 0,3 km/h (0 Bft) W-SW 247 0 min 0,0 UV-I 10,8 C 13,4 C 0,0 km/h (0 Bft)
28.06.2014 04:40 13,6 C 25,1 C 14,0 C 13,5 C 13,3 C 0,0 C 82 % 85 % 0 % 1012,4 hPa 0,0 l/m 0,8 km/h (0 Bft) SW 225 0 min 0,0 UV-I 10,6 C 13,3 C 4,7 km/h (1 Bft)
28.06.2014 04:45 13,7 C 25,1 C 14,1 C 13,7 C 13,6 C 0,0 C 82 % 85 % 0 % 1012,4 hPa 0,0 l/m 0,8 km/h (0 Bft) S-SO 157 0 min 0,0 UV-I 10,7 C 13,6 C 2,6 km/h (1 Bft)
28.06.2014 04:50 13,7 C 25,1 C 14,1 C 13,9 C 13,9 C 0,2 C 82 % 84 % 0 % 1012,4 hPa 0,0 l/m 0,5 km/h (0 Bft) SW 225 0 min 0,0 UV-I 10,7 C 13,9 C 0,0 km/h (0 Bft)
28.06.2014 04:55 13,8 C 25,1 C 14,1 C 14,1 C 14,1 C 0,3 C 82 % 84 % 0 % 1012,4 hPa 0,0 l/m 0,2 km/h (0 Bft) O-NO 67 0 min 0,0 UV-I 10,8 C 14,1 C 0,0 km/h (0 Bft)
28.06.2014 05:00 13,9 C 25,1 C 14,2 C 14,3 C 14,3 C 0,4 C 81 % 84 % 0 % 1012,2 hPa 0,0 l/m 0,0 km/h (0 Bft) S-SO 157 0 min 0,0 UV-I 10,7 C 14,3 C 0,0 km/h (0 Bft)
28.06.2014 05:05 14,1 C 25,1 C 14,3 C 14,3 C 14,3 C 0,2 C 81 % 84 % 0 % 1012,2 hPa 0,0 l/m 0,0 km/h (0 Bft) SO 135 0 min 0,0 UV-I 10,9 C 14,3 C 0,0 km/h (0 Bft)
28.06.2014 05:10 14,1 C 25,1 C 14,2 C 14,5 C 14,5 C 0,4 C 80 % 83 % 0 % 1012,2 hPa 0,0 l/m 0,0 km/h (0 Bft) O 90 0 min 0,0 UV-I 10,7 C 14,5 C 0,0 km/h (0 Bft)
28.06.2014 05:15 14,3 C 25,1 C 14,3 C 14,5 C 14,5 C 0,2 C 80 % 83 % 5 % 1012,2 hPa 0,0 l/m 0,0 km/h (0 Bft) O-NO 67 0 min 0,0 UV-I 10,9 C 14,5 C 0,0 km/h (0 Bft)
28.06.2014 05:20 14,3 C 25,1 C 14,3 C 14,7 C 14,7 C 0,4 C 80 % 83 % 11 % 1012,6 hPa 0,0 l/m 0,0 km/h (0 Bft) O-NO 67 5 min 0,0 UV-I 10,9 C 14,7 C 0,0 km/h (0 Bft)
28.06.2014 05:25 14,4 C 25,1 C 14,3 C 14,7 C 14,7 C 0,3 C 79 % 83 % 8 % 1012,6 hPa 0,0 l/m 0,0 km/h (0 Bft) O 90 0 min 0,0 UV-I 10,8 C 14,7 C 0,0 km/h (0 Bft)
28.06.2014 05:30 14,4 C 25,1 C 14,3 C 14,7 C 14,7 C 0,3 C 79 % 83 % 8 % 1012,6 hPa 0,0 l/m 0,0 km/h (0 Bft) O-NO 67 0 min 0,0 UV-I 10,8 C 14,7 C 0,0 km/h (0 Bft)
28.06.2014 05:35 14,4 C 25,1 C 14,3 C 14,7 C 14,7 C 0,3 C 80 % 83 % 8 % 1012,6 hPa 0,0 l/m 0,0 km/h (0 Bft) O-NO 67 0 min 0,0 UV-I 11,0 C 14,7 C 0,0 km/h (0 Bft)
28.06.2014 05:40 14,5 C 25,1 C 14,4 C 14,7 C 14,7 C 0,2 C 79 % 83 % 5 % 1013,0 hPa 0,0 l/m 0,2 km/h (0 Bft) S-SO 157 0 min 0,0 UV-I 10,9 C 14,7 C 0,0 km/h (0 Bft)
28.06.2014 05:45 14,7 C 25,1 C 14,4 C 14,8 C 14,8 C 0,1 C 80 % 83 % 3 % 1013,0 hPa 0,0 l/m 0,3 km/h (0 Bft) O 90 0 min 0,0 UV-I 11,3 C 14,8 C 0,0 km/h (0 Bft)
28.06.2014 05:50 14,7 C 25,1 C 14,5 C 14,6 C 14,5 C 0,0 C 80 % 83 % 0 % 1013,0 hPa 0,0 l/m 0,6 km/h (0 Bft) S-SW 202 0 min 0,0 UV-I 11,3 C 14,5 C 3,5 km/h (1 Bft)
28.06.2014 05:55 14,7 C 25,1 C 14,5 C 14,5 C 14,1 C 0,0 C 80 % 83 % 0 % 1013,0 hPa 0,0 l/m 0,6 km/h (0 Bft) S-SO 157 0 min 0,0 UV-I 11,3 C 14,1 C 0,0 km/h (0 Bft)
28.06.2014 06:00 14,7 C 25,1 C 14,4 C 14,4 C 13,7 C 0,0 C 81 % 83 % 0 % 1013,1 hPa 0,0 l/m 0,8 km/h (0 Bft) S 180 0 min 0,0 UV-I 11,5 C 13,7 C 0,0 km/h (0 Bft)
28.06.2014 06:05 14,6 C 25,2 C 14,3 C 14,3 C 13,6 C 0,0 C 82 % 84 % 0 % 1013,1 hPa 0,0 l/m 0,5 km/h (0 Bft) W-NW 292 0 min 0,0 UV-I 11,6 C 13,6 C 0,0 km/h (0 Bft)
28.06.2014 06:10 14,4 C 25,3 C 14,3 C 14,1 C 13,5 C 0,0 C 82 % 85 % 0 % 1013,1 hPa 0,0 l/m 0,3 km/h (0 Bft) O-NO 67 0 min 0,0 UV-I 11,4 C 13,5 C 0,0 km/h (0 Bft)
28.06.2014 06:15 14,4 C 25,3 C 14,0 C 14,1 C 13,5 C 0,0 C 83 % 86 % 0 % 1013,1 hPa 0,0 l/m 0,2 km/h (0 Bft) N-NO 22 0 min 0,0 UV-I 11,5 C 13,5 C 0,0 km/h (0 Bft)
28.06.2014 06:20 14,2 C 25,5 C 14,0 C 14,0 C 13,5 C 0,0 C 83 % 86 % 0 % 1012,4 hPa 0,7 l/m 0,0 km/h (0 Bft) O-SO 112 0 min 0,0 UV-I 11,4 C 13,5 C 0,0 km/h (0 Bft)
28.06.2014 06:25 14,1 C 25,5 C 13,9 C 13,9 C 13,5 C 0,0 C 83 % 86 % 0 % 1012,4 hPa 0,0 l/m 0,0 km/h (0 Bft) O-SO 112 0 min 0,0 UV-I 11,3 C 13,5 C 0,0 km/h (0 Bft)
28.06.2014 06:30 13,9 C 25,5 C 13,7 C 13,8 C 13,6 C 0,0 C 84 % 87 % 0 % 1012,4 hPa 0,0 l/m 0,6 km/h (0 Bft) O-SO 112 0 min 0,0 UV-I 11,2 C 13,6 C 2,3 km/h (1 Bft)
28.06.2014 06:35 13,7 C 25,5 C 13,6 C 13,7 C 13,6 C 0,0 C 85 % 88 % 0 % 1012,4 hPa 0,0 l/m 1,9 km/h (1 Bft) O-SO 112 0 min 0,0 UV-I 11,2 C 13,6 C 2,9 km/h (1 Bft)
28.06.2014 06:41 13,6 C 25,5 C 14,0 C 13,7 C 13,7 C 0,1 C 86 % 89 % 3 % 1011,4 hPa 0,7 l/m 1,3 km/h (1 Bft) N 0 0 min 0,0 UV-I 11,3 C 13,7 C 1,6 km/h (1 Bft)
28.06.2014 07:03 13,6 C 25,5 C 14,4 C 14,4 C 14,4 C 0,8 C 86 % 90 % 21 % 1011,4 hPa 0,0 l/m 0,2 km/h (0 Bft) SW 225 0 min 0,0 UV-I 11,3 C 14,4 C 0,0 km/h (0 Bft)
28.06.2014 07:10 13,6 C 25,5 C 14,7 C 14,6 C 14,6 C 1,0 C 86 % 91 % 26 % 1011,4 hPa 0,0 l/m 0,2 km/h (0 Bft) O-SO 112 0 min 0,0 UV-I 11,3 C 14,6 C 0,0 km/h (0 Bft)
28.06.2014 07:15 13,7 C 25,5 C 14,7 C 14,8 C 14,8 C 1,1 C 87 % 91 % 29 % 1011,4 hPa 0,0 l/m 0,0 km/h (0 Bft) O-SO 112 0 min 0,0 UV-I 11,6 C 14,8 C 0,0 km/h (0 Bft)
28.06.2014 07:20 13,8 C 25,5 C 14,7 C 14,9 C 14,9 C 1,1 C 87 % 91 % 29 % 1011,7 hPa 0,0 l/m 0,0 km/h (0 Bft) W-NW 292 0 min 0,0 UV-I 11,7 C 14,9 C 0,0 km/h (0 Bft)
28.06.2014 07:25 13,9 C 25,5 C 14,9 C 15,0 C 15,0 C 1,1 C 87 % 91 % 29 % 1011,7 hPa 0,0 l/m 0,0 km/h (0 Bft) W-SW 247 0 min 0,0 UV-I 11,8 C 15,0 C 0,0 km/h (0 Bft)
28.06.2014 07:30 13,9 C 25,5 C 14,8 C 15,2 C 15,2 C 1,3 C 87 % 91 % 34 % 1011,7 hPa 0,0 l/m 0,0 km/h (0 Bft) S 180 0 min 0,0 UV-I 11,8 C 15,2 C 0,0 km/h (0 Bft)
28.06.2014 07:35 14,0 C 25,5 C 15,1 C 15,6 C 15,6 C 1,6 C 87 % 91 % 42 % 1011,7 hPa 0,0 l/m 0,0 km/h (0 Bft) NW 315 0 min 0,0 UV-I 11,9 C 15,6 C 0,0 km/h (0 Bft)
28.06.2014 07:40 14,1 C 25,5 C 15,2 C 16,6 C 16,6 C 2,5 C 88 % 91 % 66 % 1011,6 hPa 0,0 l/m 0,0 km/h (0 Bft) S 180 0 min 0,0 UV-I 12,1 C 16,6 C 0,0 km/h (0 Bft)
28.06.2014 07:45 14,4 C 25,5 C 15,3 C 17,1 C 17,1 C 2,7 C 88 % 91 % 71 % 1011,6 hPa 0,0 l/m 0,0 km/h (0 Bft) W-SW 247 0 min 0,0 UV-I 12,4 C 17,1 C 0,0 km/h (0 Bft)
28.06.2014 07:50 14,7 C 25,4 C 15,6 C 19,2 C 19,2 C 4,5 C 88 % 91 % 100 % 1011,6 hPa 0,0 l/m 0,0 km/h (0 Bft) N-NW 337 5 min 0,0 UV-I 12,7 C 19,2 C 0,0 km/h (0 Bft)
28.06.2014 07:55 14,9 C 25,4 C 15,7 C 19,3 C 19,3 C 4,4 C 88 % 91 % 100 % 1011,6 hPa 0,0 l/m 0,0 km/h (0 Bft) NW 315 5 min 0,0 UV-I 12,9 C 19,3 C 0,0 km/h (0 Bft)
28.06.2014 08:00 15,1 C 25,4 C 15,9 C 18,9 C 18,9 C 3,8 C 88 % 91 % 100 % 1011,8 hPa 0,0 l/m 0,0 km/h (0 Bft) N-NO 22 5 min 0,0 UV-I 13,1 C 18,9 C 0,0 km/h (0 Bft)
28.06.2014 08:05 15,2 C 25,4 C 15,9 C 18,7 C 18,7 C 3,5 C 88 % 91 % 92 % 1011,8 hPa 0,0 l/m 0,0 km/h (0 Bft) SW 225 5 min 0,0 UV-I 13,2 C 18,7 C 0,0 km/h (0 Bft)
28.06.2014 08:10 15,5 C 25,4 C 16,0 C 18,5 C 18,5 C 3,0 C 87 % 91 % 79 % 1011,8 hPa 0,0 l/m 0,0 km/h (0 Bft) SW 225 0 min 0,0 UV-I 13,3 C 18,5 C 0,0 km/h (0 Bft)
28.06.2014 08:15 15,4 C 25,4 C 16,0 C 18,6 C 18,6 C 3,2 C 87 % 91 % 84 % 1011,8 hPa 0,0 l/m 0,0 km/h (0 Bft) W-NW 292 0 min 0,0 UV-I 13,2 C 18,6 C 0,0 km/h (0 Bft)
28.06.2014 08:20 15,6 C 25,3 C 16,1 C 18,7 C 18,7 C 3,1 C 87 % 91 % 82 % 1012,0 hPa 0,0 l/m 0,0 km/h (0 Bft) W 270 0 min 0,0 UV-I 13,4 C 18,7 C 0,0 km/h (0 Bft)
28.06.2014 08:25 15,8 C 25,3 C 16,2 C 19,3 C 19,3 C 3,5 C 87 % 91 % 92 % 1012,0 hPa 0,0 l/m 0,0 km/h (0 Bft) SO 135 5 min 0,0 UV-I 13,6 C 19,3 C 0,0 km/h (0 Bft)
28.06.2014 08:30 16,0 C 25,3 C 16,5 C 21,2 C 21,2 C 5,2 C 87 % 91 % 100 % 1012,0 hPa 0,0 l/m 0,0 km/h (0 Bft) W-SW 247 5 min 0,0 UV-I 13,8 C 21,2 C 0,0 km/h (0 Bft)
28.06.2014 08:35 16,3 C 25,3 C 16,6 C 22,7 C 22,7 C 6,4 C 87 % 91 % 100 % 1012,0 hPa 0,0 l/m 0,0 km/h (0 Bft) SO 135 5 min 0,0 UV-I 14,1 C 22,7 C 0,0 km/h (0 Bft)
28.06.2014 08:40 16,5 C 25,2 C 16,7 C 23,9 C 23,9 C 7,4 C 86 % 91 % 100 % 1012,1 hPa 0,0 l/m 0,2 km/h (0 Bft) SW 225 5 min 0,0 UV-I 14,1 C 23,9 C 0,0 km/h (0 Bft)
28.06.2014 08:45 16,9 C 25,2 C 16,7 C 24,5 C 24,5 C 7,6 C 86 % 91 % 100 % 1012,1 hPa 0,0 l/m 0,2 km/h (0 Bft) W-SW 247 5 min 0,0 UV-I 14,5 C 24,5 C 0,0 km/h (0 Bft)
28.06.2014 08:50 17,4 C 25,1 C 16,8 C 25,4 C 25,4 C 8,0 C 85 % 91 % 100 % 1012,1 hPa 0,0 l/m 0,2 km/h (0 Bft) W-NW 292 5 min 0,0 UV-I 14,8 C 25,4 C 0,0 km/h (0 Bft)
28.06.2014 08:55 17,8 C 25,1 C 16,8 C 26,2 C 26,2 C 8,4 C 84 % 91 % 100 % 1012,1 hPa 0,0 l/m 0,0 km/h (0 Bft) W 270 5 min 0,0 UV-I 15,1 C 26,2 C 0,0 km/h (0 Bft)
28.06.2014 09:00 18,4 C 25,1 C 17,1 C 26,1 C 26,1 C 7,7 C 83 % 91 % 100 % 1012,3 hPa 0,0 l/m 0,0 km/h (0 Bft) S 180 5 min 0,0 UV-I 15,5 C 26,1 C 0,0 km/h (0 Bft)
28.06.2014 09:05 18,7 C 25,0 C 17,1 C 26,4 C 26,4 C 7,7 C 82 % 91 % 100 % 1012,3 hPa 0,0 l/m 0,2 km/h (0 Bft) S-SO 157 5 min 0,0 UV-I 15,6 C 26,4 C 0,0 km/h (0 Bft)
28.06.2014 09:10 19,1 C 25,1 C 17,3 C 25,8 C 25,8 C 6,7 C 80 % 91 % 100 % 1012,3 hPa 0,0 l/m 0,2 km/h (0 Bft) S-SO 157 5 min 0,0 UV-I 15,6 C 25,8 C 0,0 km/h (0 Bft)
28.06.2014 09:15 19,3 C 25,0 C 17,3 C 24,9 C 24,9 C 5,6 C 80 % 91 % 100 % 1012,3 hPa 0,0 l/m 0,3 km/h (0 Bft) O 90 5 min 0,0 UV-I 15,8 C 24,9 C 2,4 km/h (1 Bft)
28.06.2014 09:20 19,5 C 25,0 C 17,5 C 24,1 C 24,1 C 4,6 C 79 % 91 % 100 % 1012,6 hPa 0,0 l/m 0,2 km/h (0 Bft) S-SW 202 5 min 0,0 UV-I 15,8 C 24,1 C 0,0 km/h (0 Bft)
28.06.2014 09:25 19,5 C 25,0 C 17,7 C 24,9 C 24,9 C 5,4 C 78 % 90 % 100 % 1012,6 hPa 0,0 l/m 0,0 km/h (0 Bft) S 180 5 min 0,0 UV-I 15,6 C 24,9 C 0,0 km/h (0 Bft)
28.06.2014 09:30 19,7 C 25,0 C 17,7 C 24,8 C 24,8 C 5,1 C 77 % 90 % 100 % 1012,6 hPa 0,0 l/m 0,2 km/h (0 Bft) S-SO 157 5 min 0,0 UV-I 15,5 C 24,8 C 0,0 km/h (0 Bft)
28.06.2014 09:35 19,9 C 25,0 C 17,8 C 24,5 C 24,5 C 4,6 C 77 % 90 % 100 % 1012,6 hPa 0,0 l/m 0,2 km/h (0 Bft) S 180 5 min 0,0 UV-I 15,7 C 24,5 C 0,0 km/h (0 Bft)
28.06.2014 09:40 19,9 C 25,0 C 18,0 C 24,5 C 24,5 C 4,6 C 76 % 90 % 100 % 1012,6 hPa 0,0 l/m 0,2 km/h (0 Bft) N-NW 337 5 min 0,0 UV-I 15,5 C 24,5 C 0,0 km/h (0 Bft)
28.06.2014 09:45 20,0 C 24,9 C 18,0 C 24,6 C 24,6 C 4,6 C 76 % 90 % 100 % 1012,6 hPa 0,0 l/m 0,2 km/h (0 Bft) S-SW 202 5 min 0,0 UV-I 15,6 C 24,6 C 0,0 km/h (0 Bft)
28.06.2014 09:50 20,1 C 24,9 C 18,2 C 24,1 C 24,1 C 4,0 C 75 % 90 % 100 % 1012,6 hPa 0,0 l/m 0,2 km/h (0 Bft) O-SO 112 5 min 0,0 UV-I 15,5 C 24,1 C 0,0 km/h (0 Bft)
28.06.2014 09:55 20,1 C 24,9 C 18,4 C 24,0 C 24,0 C 3,9 C 75 % 90 % 100 % 1012,6 hPa 0,0 l/m 0,2 km/h (0 Bft) W-SW 247 5 min 0,0 UV-I 15,5 C 24,0 C 0,0 km/h (0 Bft)
28.06.2014 10:00 20,3 C 24,9 C 18,6 C 25,3 C 25,3 C 5,0 C 75 % 90 % 100 % 1011,9 hPa 0,0 l/m 0,0 km/h (0 Bft) SO 135 5 min 0,0 UV-I 15,7 C 25,3 C 1,9 km/h (1 Bft)
28.06.2014 10:05 20,3 C 24,9 C 18,7 C 25,8 C 25,8 C 5,5 C 75 % 90 % 100 % 1011,9 hPa 0,0 l/m 0,0 km/h (0 Bft) W-SW 247 5 min 0,0 UV-I 15,7 C 25,8 C 0,0 km/h (0 Bft)
28.06.2014 10:10 20,3 C 24,9 C 18,7 C 25,9 C 25,9 C 5,6 C 74 % 90 % 100 % 1011,9 hPa 0,0 l/m 0,3 km/h (0 Bft) S-SO 157 5 min 0,0 UV-I 15,5 C 25,9 C 0,0 km/h (0 Bft)
28.06.2014 10:15 20,3 C 24,9 C 18,8 C 26,0 C 26,0 C 5,7 C 73 % 90 % 100 % 1011,9 hPa 0,0 l/m 0,5 km/h (0 Bft) S 180 5 min 0,0 UV-I 15,3 C 26,0 C 1,9 km/h (1 Bft)
28.06.2014 10:20 20,3 C 24,9 C 18,8 C 26,0 C 26,0 C 5,7 C 73 % 90 % 100 % 1011,6 hPa 0,0 l/m 0,5 km/h (0 Bft) O-SO 112 5 min 0,0 UV-I 15,3 C 26,0 C 0,0 km/h (0 Bft)
28.06.2014 10:25 20,4 C 24,9 C 18,9 C 26,2 C 26,2 C 5,8 C 73 % 90 % 100 % 1011,6 hPa 0,0 l/m 0,5 km/h (0 Bft) S-SW 202 5 min 0,0 UV-I 15,4 C 26,2 C 0,0 km/h (0 Bft)
28.06.2014 10:30 20,6 C 24,9 C 19,2 C 26,5 C 26,5 C 5,9 C 73 % 90 % 100 % 1011,6 hPa 0,0 l/m 0,5 km/h (0 Bft) S 180 5 min 0,0 UV-I 15,6 C 26,5 C 1,8 km/h (1 Bft)
28.06.2014 10:35 20,7 C 24,9 C 19,2 C 26,3 C 26,3 C 5,6 C 72 % 89 % 100 % 1011,6 hPa 0,0 l/m 0,6 km/h (0 Bft) W-SW 247 5 min 0,0 UV-I 15,5 C 26,3 C 2,4 km/h (1 Bft)
28.06.2014 10:40 20,8 C 24,9 C 19,4 C 25,6 C 25,6 C 4,8 C 71 % 89 % 100 % 1011,5 hPa 0,0 l/m 1,6 km/h (1 Bft) W 270 5 min 0,0 UV-I 15,3 C 25,6 C 3,9 km/h (1 Bft)
28.06.2014 10:45 20,9 C 24,9 C 19,4 C 25,4 C 25,4 C 4,5 C 71 % 88 % 100 % 1011,5 hPa 0,0 l/m 2,1 km/h (1 Bft) SW 225 5 min 0,0 UV-I 15,4 C 25,4 C 3,1 km/h (1 Bft)
28.06.2014 10:50 21,1 C 24,9 C 19,5 C 25,8 C 25,8 C 4,7 C 70 % 88 % 100 % 1011,5 hPa 0,0 l/m 2,1 km/h (1 Bft) O 90 5 min 0,0 UV-I 15,4 C 25,8 C 0,0 km/h (0 Bft)
28.06.2014 10:55 21,3 C 24,9 C 19,4 C 26,0 C 26,0 C 4,7 C 70 % 88 % 100 % 1011,5 hPa 0,0 l/m 1,4 km/h (1 Bft) W-SW 247 5 min 0,0 UV-I 15,6 C 26,0 C 0,0 km/h (0 Bft)
28.06.2014 11:00 21,4 C 24,9 C 19,4 C 26,6 C 26,6 C 5,2 C 69 % 87 % 100 % 1011,7 hPa 0,0 l/m 1,3 km/h (1 Bft) W 270 5 min 0,0 UV-I 15,5 C 26,6 C 12,2 km/h (2 Bft)
28.06.2014 11:05 21,5 C 24,9 C 19,5 C 26,3 C 26,3 C 4,8 C 68 % 87 % 100 % 1011,7 hPa 0,0 l/m 1,9 km/h (1 Bft) S 180 5 min 0,0 UV-I 15,3 C 26,3 C 4,0 km/h (1 Bft)
28.06.2014 11:10 21,7 C 25,0 C 19,6 C 26,7 C 26,7 C 5,0 C 68 % 86 % 100 % 1011,7 hPa 0,0 l/m 2,7 km/h (1 Bft) S-SW 202 5 min 0,0 UV-I 15,5 C 26,7 C 0,0 km/h (0 Bft)
28.06.2014 11:15 21,9 C 25,0 C 19,7 C 27,0 C 27,0 C 5,1 C 68 % 85 % 100 % 1011,7 hPa 0,0 l/m 2,1 km/h (1 Bft) SO 135 5 min 0,0 UV-I 15,7 C 27,0 C 3,4 km/h (1 Bft)
28.06.2014 11:20 21,9 C 25,0 C 19,9 C 27,3 C 27,3 C 5,4 C 68 % 85 % 100 % 1011,8 hPa 0,0 l/m 1,4 km/h (1 Bft) NW 315 5 min 0,0 UV-I 15,7 C 27,3 C 0,0 km/h (0 Bft)
28.06.2014 11:25 22,1 C 25,1 C 20,0 C 27,8 C 27,8 C 5,7 C 67 % 86 % 100 % 1011,8 hPa 0,0 l/m 1,8 km/h (1 Bft) S 180 5 min 0,0 UV-I 15,7 C 27,8 C 2,1 km/h (1 Bft)
28.06.2014 11:30 22,0 C 25,1 C 20,3 C 27,9 C 27,9 C 5,9 C 67 % 85 % 100 % 1011,8 hPa 0,0 l/m 2,9 km/h (1 Bft) S 180 5 min 0,0 UV-I 15,6 C 27,9 C 0,0 km/h (0 Bft)
28.06.2014 11:35 22,3 C 25,1 C 20,4 C 27,9 C 27,9 C 5,6 C 67 % 85 % 100 % 1011,8 hPa 0,0 l/m 2,6 km/h (1 Bft) S 180 5 min 0,0 UV-I 15,9 C 27,9 C 1,6 km/h (1 Bft)
28.06.2014 11:40 22,4 C 25,1 C 20,8 C 28,2 C 28,2 C 5,8 C 66 % 84 % 100 % 1011,4 hPa 0,0 l/m 1,3 km/h (1 Bft) S 180 5 min 0,0 UV-I 15,7 C 28,2 C 3,1 km/h (1 Bft)
28.06.2014 11:45 22,5 C 25,0 C 21,0 C 28,2 C 28,2 C 5,7 C 66 % 84 % 100 % 1011,4 hPa 0,0 l/m 1,9 km/h (1 Bft) SW 225 5 min 0,0 UV-I 15,8 C 28,2 C 6,1 km/h (2 Bft)
28.06.2014 11:50 22,7 C 25,0 C 21,2 C 27,5 C 27,5 C 4,8 C 64 % 83 % 100 % 1011,4 hPa 0,0 l/m 2,6 km/h (1 Bft) NW 315 5 min 0,0 UV-I 15,5 C 27,5 C 4,2 km/h (1 Bft)
28.06.2014 11:55 22,7 C 25,0 C 21,3 C 27,1 C 27,1 C 4,4 C 64 % 83 % 100 % 1011,4 hPa 0,0 l/m 3,5 km/h (1 Bft) W 270 5 min 0,0 UV-I 15,5 C 27,1 C 2,6 km/h (1 Bft)
28.06.2014 12:00 22,8 C 25,0 C 21,3 C 26,6 C 26,6 C 3,8 C 64 % 82 % 100 % 1011,4 hPa 0,0 l/m 3,5 km/h (1 Bft) S 180 5 min 0,0 UV-I 15,6 C 26,6 C 6,0 km/h (2 Bft)
28.06.2014 12:05 22,7 C 25,0 C 21,4 C 26,4 C 26,4 C 3,7 C 64 % 82 % 97 % 1011,4 hPa 0,0 l/m 3,4 km/h (1 Bft) W-SW 247 5 min 0,0 UV-I 15,5 C 26,4 C 2,3 km/h (1 Bft)
28.06.2014 12:10 22,8 C 25,0 C 21,5 C 26,7 C 26,7 C 3,9 C 64 % 81 % 100 % 1011,4 hPa 0,0 l/m 3,9 km/h (1 Bft) N-NW 337 5 min 0,0 UV-I 15,6 C 26,7 C 5,5 km/h (1 Bft)
28.06.2014 12:15 22,8 C 25,1 C 21,5 C 26,5 C 26,5 C 3,7 C 63 % 80 % 97 % 1011,4 hPa 0,0 l/m 3,4 km/h (1 Bft) O-SO 112 5 min 0,0 UV-I 15,4 C 26,5 C 0,0 km/h (0 Bft)
28.06.2014 12:20 22,8 C 25,1 C 21,5 C 26,0 C 26,0 C 3,2 C 62 % 80 % 84 % 1011,4 hPa 0,0 l/m 2,9 km/h (1 Bft) O-SO 112 0 min 0,0 UV-I 15,1 C 26,0 C 6,0 km/h (2 Bft)
28.06.2014 12:25 22,8 C 25,1 C 21,6 C 26,0 C 26,0 C 3,2 C 62 % 79 % 84 % 1011,4 hPa 0,0 l/m 2,9 km/h (1 Bft) W-SW 247 0 min 0,0 UV-I 15,1 C 26,0 C 4,0 km/h (1 Bft)
28.06.2014 12:30 23,1 C 25,1 C 21,8 C 26,5 C 26,5 C 3,4 C 64 % 80 % 89 % 1011,4 hPa 0,0 l/m 2,6 km/h (1 Bft) W-SW 247 5 min 0,0 UV-I 15,9 C 26,5 C 1,8 km/h (1 Bft)
28.06.2014 12:35 23,5 C 25,1 C 21,9 C 27,3 C 27,3 C 3,8 C 63 % 79 % 100 % 1011,4 hPa 0,0 l/m 2,3 km/h (1 Bft) S-SW 202 5 min 0,0 UV-I 16,0 C 27,3 C 8,0 km/h (2 Bft)
28.06.2014 12:41 23,5 C 25,1 C 22,0 C 27,3 C 27,3 C 3,8 C 60 % 77 % 100 % 1011,4 hPa 0,0 l/m 3,9 km/h (1 Bft) N 0 6 min 0,0 UV-I 15,3 C 27,3 C 7,9 km/h (2 Bft)
28.06.2014 13:01 23,7 C 25,2 C 22,3 C 27,4 C 27,4 C 3,7 C 57 % 73 % 97 % 1010,6 hPa 0,0 l/m 4,5 km/h (1 Bft) S 180 20 min 0,0 UV-I 14,7 C 27,4 C 13,5 km/h (3 Bft)
28.06.2014 13:02 23,7 C 25,2 C 22,3 C 27,4 C 27,4 C 3,7 C 57 % 73 % 97 % 1010,6 hPa 0,0 l/m 4,5 km/h (1 Bft) S 180 1 min 0,0 UV-I 14,7 C 27,4 C 4,5 km/h (1 Bft)
28.06.2014 13:05 23,7 C 25,2 C 22,3 C 27,4 C 27,4 C 3,7 C 57 % 73 % 97 % 1010,6 hPa 0,0 l/m 4,5 km/h (1 Bft) S 180 3 min 0,0 UV-I 14,7 C 27,4 C 4,5 km/h (1 Bft)
28.06.2014 13:10 23,9 C 25,2 C 22,2 C 27,4 C 27,4 C 3,5 C 56 % 72 % 92 % 1010,6 hPa 0,0 l/m 4,8 km/h (1 Bft) S 180 5 min 0,0 UV-I 14,6 C 27,4 C 7,7 km/h (2 Bft)
28.06.2014 13:15 23,8 C 25,2 C 22,3 C 27,0 C 27,0 C 3,2 C 56 % 71 % 84 % 1010,6 hPa 0,0 l/m 4,3 km/h (1 Bft) W 270 0 min 0,0 UV-I 14,5 C 27,0 C 3,9 km/h (1 Bft)
28.06.2014 13:20 23,7 C 25,2 C 22,3 C 26,7 C 26,7 C 3,0 C 56 % 70 % 79 % 1011,2 hPa 0,0 l/m 4,2 km/h (1 Bft) SW 225 0 min 0,0 UV-I 14,4 C 26,7 C 5,3 km/h (1 Bft)
28.06.2014 13:25 23,7 C 25,2 C 22,1 C 26,3 C 26,3 C 2,6 C 56 % 69 % 68 % 1011,2 hPa 0,0 l/m 3,9 km/h (1 Bft) S 180 0 min 0,0 UV-I 14,4 C 26,3 C 3,5 km/h (1 Bft)
28.06.2014 13:30 23,6 C 25,2 C 22,3 C 26,5 C 26,5 C 2,9 C 56 % 69 % 76 % 1011,2 hPa 0,0 l/m 3,4 km/h (1 Bft) W-SW 247 0 min 0,0 UV-I 14,3 C 26,5 C 2,4 km/h (1 Bft)
28.06.2014 13:35 23,9 C 25,3 C 22,4 C 27,3 C 27,3 C 3,4 C 56 % 70 % 89 % 1011,2 hPa 0,0 l/m 3,2 km/h (1 Bft) W 270 5 min 0,0 UV-I 14,6 C 27,3 C 7,9 km/h (2 Bft)
28.06.2014 13:40 24,3 C 25,3 C 22,7 C 28,3 C 28,3 C 4,0 C 57 % 70 % 100 % 1010,5 hPa 0,0 l/m 3,4 km/h (1 Bft) SW 225 5 min 0,0 UV-I 15,2 C 28,3 C 5,0 km/h (1 Bft)
28.06.2014 13:45 24,6 C 25,3 C 22,9 C 29,1 C 29,1 C 4,5 C 55 % 69 % 100 % 1010,5 hPa 0,0 l/m 3,5 km/h (1 Bft) SW 225 5 min 0,0 UV-I 14,9 C 29,1 C 3,9 km/h (1 Bft)
28.06.2014 13:50 24,9 C 25,3 C 23,3 C 29,5 C 29,5 C 4,6 C 55 % 68 % 100 % 1010,5 hPa 0,0 l/m 3,2 km/h (1 Bft) W-SW 247 5 min 0,1 UV-I 15,2 C 29,5 C 7,4 km/h (2 Bft)
28.06.2014 13:55 25,1 C 25,3 C 23,2 C 29,3 C 29,3 C 4,2 C 54 % 67 % 100 % 1010,5 hPa 0,0 l/m 3,2 km/h (1 Bft) W-NW 292 5 min 0,1 UV-I 15,1 C 29,3 C 3,2 km/h (1 Bft)
28.06.2014 14:00 25,5 C 25,3 C 23,8 C 30,1 C 30,1 C 4,6 C 53 % 67 % 100 % 1010,8 hPa 0,0 l/m 2,7 km/h (1 Bft) W-SW 247 5 min 0,1 UV-I 15,2 C 30,1 C 3,1 km/h (1 Bft)
28.06.2014 14:05 25,9 C 25,3 C 23,9 C 30,9 C 30,9 C 5,0 C 52 % 65 % 100 % 1010,8 hPa 0,0 l/m 2,3 km/h (1 Bft) W 270 5 min 0,1 UV-I 15,3 C 30,9 C 4,8 km/h (1 Bft)
28.06.2014 14:10 26,3 C 25,3 C 23,9 C 31,0 C 31,0 C 4,7 C 49 % 63 % 100 % 1010,8 hPa 0,0 l/m 1,6 km/h (1 Bft) S-SW 202 5 min 0,1 UV-I 14,7 C 31,0 C 0,0 km/h (0 Bft)
28.06.2014 14:15 26,4 C 25,3 C 23,8 C 30,9 C 30,9 C 4,5 C 49 % 64 % 100 % 1010,8 hPa 0,0 l/m 2,3 km/h (1 Bft) W 270 5 min 0,1 UV-I 14,8 C 30,9 C 6,3 km/h (2 Bft)
28.06.2014 14:20 26,6 C 25,3 C 23,9 C 31,3 C 31,3 C 4,7 C 50 % 64 % 100 % 1010,4 hPa 0,0 l/m 2,9 km/h (1 Bft) N-NW 337 5 min 0,1 UV-I 15,3 C 31,3 C 4,8 km/h (1 Bft)
28.06.2014 14:25 26,9 C 25,4 C 24,0 C 31,4 C 31,4 C 4,5 C 48 % 63 % 100 % 1010,4 hPa 0,0 l/m 3,2 km/h (1 Bft) S-SW 202 5 min 0,1 UV-I 14,9 C 31,4 C 6,8 km/h (2 Bft)
28.06.2014 14:30 27,0 C 25,4 C 24,1 C 31,5 C 31,5 C 4,5 C 48 % 62 % 100 % 1010,4 hPa 0,0 l/m 2,7 km/h (1 Bft) S 180 5 min 0,1 UV-I 15,0 C 31,5 C 1,8 km/h (1 Bft)
28.06.2014 14:35 27,2 C 25,4 C 24,2 C 32,1 C 32,1 C 4,9 C 48 % 63 % 100 % 1010,4 hPa 0,0 l/m 1,9 km/h (1 Bft) W-SW 247 5 min 0,1 UV-I 15,2 C 32,1 C 2,9 km/h (1 Bft)
28.06.2014 14:40 27,6 C 25,4 C 24,4 C 32,6 C 32,6 C 5,0 C 47 % 62 % 100 % 1010,4 hPa 0,0 l/m 1,8 km/h (1 Bft) S-SW 202 5 min 0,1 UV-I 15,3 C 32,6 C 6,4 km/h (2 Bft)
28.06.2014 14:45 27,6 C 25,4 C 24,4 C 32,0 C 32,0 C 4,4 C 47 % 61 % 100 % 1010,4 hPa 0,0 l/m 2,9 km/h (1 Bft) SW 225 5 min 0,1 UV-I 15,3 C 32,0 C 5,1 km/h (1 Bft)
28.06.2014 14:50 27,1 C 25,4 C 24,3 C 30,4 C 30,4 C 3,3 C 47 % 62 % 87 % 1010,4 hPa 0,0 l/m 3,7 km/h (1 Bft) SW 225 5 min 0,1 UV-I 14,8 C 30,4 C 5,6 km/h (1 Bft)
28.06.2014 14:55 26,6 C 25,4 C 24,3 C 30,0 C 30,0 C 3,4 C 47 % 61 % 89 % 1010,4 hPa 0,0 l/m 4,0 km/h (1 Bft) W-SW 247 5 min 0,1 UV-I 14,3 C 30,0 C 4,2 km/h (1 Bft)
28.06.2014 15:00 26,4 C 25,4 C 23,8 C 29,2 C 29,2 C 2,8 C 46 % 60 % 74 % 1010,4 hPa 0,0 l/m 4,3 km/h (1 Bft) W-SW 247 0 min 0,1 UV-I 13,8 C 29,2 C 13,7 km/h (3 Bft)
28.06.2014 15:05 26,3 C 25,4 C 23,7 C 28,5 C 28,5 C 2,2 C 45 % 59 % 58 % 1010,4 hPa 0,0 l/m 4,0 km/h (1 Bft) S 180 0 min 0,0 UV-I 13,4 C 28,5 C 4,5 km/h (1 Bft)
28.06.2014 15:10 26,3 C 25,4 C 23,5 C 28,0 C 28,0 C 1,7 C 47 % 60 % 45 % 1010,4 hPa 0,0 l/m 2,9 km/h (1 Bft) S-SW 202 0 min 0,0 UV-I 14,1 C 28,0 C 3,7 km/h (1 Bft)
28.06.2014 15:15 26,3 C 25,4 C 23,5 C 28,0 C 28,0 C 1,7 C 46 % 61 % 45 % 1010,4 hPa 0,0 l/m 2,6 km/h (1 Bft) S 180 0 min 0,0 UV-I 13,7 C 28,0 C 7,1 km/h (2 Bft)
28.06.2014 15:20 25,8 C 25,4 C 23,5 C 27,6 C 27,6 C 1,8 C 47 % 61 % 47 % 1010,1 hPa 0,0 l/m 4,2 km/h (1 Bft) SW 225 0 min 0,0 UV-I 13,6 C 27,6 C 0,0 km/h (0 Bft)
28.06.2014 15:25 25,7 C 25,5 C 23,6 C 27,9 C 27,9 C 2,2 C 47 % 61 % 58 % 1010,1 hPa 0,0 l/m 4,2 km/h (1 Bft) S-SO 157 0 min 0,0 UV-I 13,5 C 27,9 C 2,1 km/h (1 Bft)
28.06.2014 15:30 25,8 C 25,5 C 23,8 C 28,8 C 28,8 C 3,0 C 49 % 62 % 79 % 1010,1 hPa 0,0 l/m 2,3 km/h (1 Bft) W 270 0 min 0,0 UV-I 14,3 C 28,8 C 0,0 km/h (0 Bft)
28.06.2014 15:35 26,1 C 25,5 C 23,9 C 29,3 C 29,3 C 3,2 C 49 % 62 % 84 % 1010,1 hPa 0,0 l/m 2,4 km/h (1 Bft) SW 225 0 min 0,0 UV-I 14,5 C 29,3 C 4,2 km/h (1 Bft)
28.06.2014 15:40 26,2 C 25,5 C 23,9 C 29,5 C 29,5 C 3,3 C 47 % 61 % 87 % 1009,6 hPa 0,0 l/m 2,4 km/h (1 Bft) NW 315 5 min 0,0 UV-I 14,0 C 29,5 C 0,0 km/h (0 Bft)
28.06.2014 15:45 26,3 C 25,5 C 23,9 C 29,5 C 29,5 C 3,2 C 47 % 60 % 84 % 1009,6 hPa 0,0 l/m 2,3 km/h (1 Bft) W-SW 247 0 min 0,0 UV-I 14,1 C 29,5 C 3,9 km/h (1 Bft)
28.06.2014 15:50 26,3 C 25,5 C 23,8 C 29,0 C 29,0 C 2,7 C 46 % 60 % 71 % 1009,6 hPa 0,0 l/m 2,4 km/h (1 Bft) SW 225 0 min 0,0 UV-I 13,7 C 29,0 C 5,0 km/h (1 Bft)
28.06.2014 15:55 26,3 C 25,5 C 23,9 C 28,6 C 28,6 C 2,3 C 46 % 61 % 61 % 1009,6 hPa 0,0 l/m 3,1 km/h (1 Bft) NW 315 0 min 0,0 UV-I 13,7 C 28,6 C 4,0 km/h (1 Bft)
28.06.2014 16:00 25,9 C 25,6 C 23,5 C 27,8 C 27,8 C 1,9 C 45 % 60 % 50 % 1009,9 hPa 0,0 l/m 4,0 km/h (1 Bft) S 180 0 min 0,0 UV-I 13,0 C 27,8 C 6,8 km/h (2 Bft)
28.06.2014 16:05 25,7 C 25,6 C 23,5 C 27,3 C 27,3 C 1,6 C 46 % 60 % 42 % 1009,9 hPa 0,0 l/m 4,2 km/h (1 Bft) S 180 0 min 0,0 UV-I 13,2 C 27,3 C 4,5 km/h (1 Bft)
28.06.2014 16:10 25,5 C 25,6 C 23,2 C 26,7 C 26,7 C 1,2 C 46 % 60 % 32 % 1009,9 hPa 0,0 l/m 3,1 km/h (1 Bft) W-SW 247 0 min 0,0 UV-I 13,0 C 26,7 C 2,9 km/h (1 Bft)
28.06.2014 16:15 25,4 C 25,6 C 23,1 C 26,3 C 26,3 C 0,9 C 47 % 60 % 24 % 1009,9 hPa 0,0 l/m 2,6 km/h (1 Bft) W 270 0 min 0,0 UV-I 13,3 C 26,3 C 2,9 km/h (1 Bft)
28.06.2014 16:20 24,8 C 25,7 C 22,7 C 24,8 C 24,8 C 0,0 C 47 % 60 % 0 % 1009,9 hPa 0,0 l/m 4,7 km/h (1 Bft) SW 225 0 min 0,0 UV-I 12,7 C 24,8 C 9,7 km/h (2 Bft)
28.06.2014 16:25 24,3 C 25,7 C 22,3 C 24,0 C 23,3 C 0,0 C 48 % 60 % 0 % 1009,9 hPa 0,0 l/m 6,4 km/h (2 Bft) W-SW 247 0 min 0,0 UV-I 12,6 C 23,3 C 16,7 km/h (3 Bft)
28.06.2014 16:30 23,3 C 25,7 C 21,9 C 22,7 C 21,4 C 0,0 C 52 % 63 % 0 % 1009,9 hPa 0,0 l/m 7,2 km/h (2 Bft) W 270 0 min 0,0 UV-I 12,9 C 21,4 C 19,3 km/h (3 Bft)
28.06.2014 16:35 22,9 C 25,7 C 21,5 C 22,2 C 20,7 C 0,0 C 54 % 65 % 0 % 1009,9 hPa 0,0 l/m 7,4 km/h (2 Bft) W-SW 247 0 min 0,0 UV-I 13,1 C 20,7 C 14,3 km/h (3 Bft)
28.06.2014 16:40 22,3 C 25,7 C 21,3 C 21,8 C 20,8 C 0,0 C 57 % 66 % 0 % 1010,2 hPa 0,0 l/m 7,1 km/h (2 Bft) S 180 0 min 0,0 UV-I 13,4 C 20,8 C 10,3 km/h (2 Bft)
28.06.2014 16:45 22,0 C 25,7 C 21,1 C 21,7 C 21,1 C 0,0 C 58 % 67 % 0 % 1010,2 hPa 0,0 l/m 5,5 km/h (1 Bft) S-SW 202 0 min 0,0 UV-I 13,3 C 21,1 C 2,3 km/h (1 Bft)
28.06.2014 16:50 21,9 C 25,7 C 21,0 C 21,7 C 21,4 C 0,0 C 60 % 68 % 0 % 1010,2 hPa 0,0 l/m 4,0 km/h (1 Bft) NW 315 0 min 0,0 UV-I 13,8 C 21,4 C 3,9 km/h (1 Bft)
28.06.2014 16:55 21,8 C 25,7 C 20,9 C 21,7 C 21,6 C 0,0 C 61 % 69 % 0 % 1010,2 hPa 0,0 l/m 3,1 km/h (1 Bft) S 180 0 min 0,0 UV-I 13,9 C 21,6 C 3,1 km/h (1 Bft)
28.06.2014 17:00 21,8 C 25,7 C 20,9 C 21,9 C 21,9 C 0,1 C 61 % 70 % 3 % 1009,9 hPa 0,0 l/m 1,9 km/h (1 Bft) S 180 0 min 0,0 UV-I 13,9 C 21,9 C 2,9 km/h (1 Bft)
28.06.2014 17:05 21,9 C 25,7 C 20,9 C 22,2 C 22,2 C 0,3 C 62 % 70 % 8 % 1009,9 hPa 0,0 l/m 1,0 km/h (0 Bft) W-NW 292 0 min 0,0 UV-I 14,3 C 22,2 C 0,0 km/h (0 Bft)
28.06.2014 17:10 21,9 C 25,7 C 20,9 C 22,8 C 22,8 C 0,9 C 62 % 71 % 24 % 1009,9 hPa 0,0 l/m 0,2 km/h (0 Bft) S 180 0 min 0,0 UV-I 14,3 C 22,8 C 1,6 km/h (1 Bft)
28.06.2014 17:15 22,0 C 25,7 C 20,9 C 22,9 C 22,9 C 0,9 C 62 % 71 % 24 % 1009,9 hPa 0,0 l/m 0,2 km/h (0 Bft) S-SW 202 0 min 0,0 UV-I 14,4 C 22,9 C 0,0 km/h (0 Bft)
28.06.2014 17:20 22,0 C 25,7 C 20,9 C 23,0 C 23,0 C 1,0 C 62 % 71 % 26 % 1010,1 hPa 0,0 l/m 0,8 km/h (0 Bft) S-SW 202 0 min 0,0 UV-I 14,4 C 23,0 C 3,9 km/h (1 Bft)
28.06.2014 17:25 22,0 C 25,8 C 20,9 C 23,0 C 23,0 C 1,0 C 62 % 71 % 26 % 1010,1 hPa 0,0 l/m 0,8 km/h (0 Bft) SW 225 0 min 0,0 UV-I 14,4 C 23,0 C 2,4 km/h (1 Bft)
28.06.2014 17:30 21,9 C 25,8 C 20,8 C 22,9 C 22,9 C 1,0 C 61 % 71 % 26 % 1010,1 hPa 0,0 l/m 1,8 km/h (1 Bft) W-SW 247 0 min 0,0 UV-I 14,0 C 22,9 C 3,9 km/h (1 Bft)
28.06.2014 17:35 21,8 C 25,8 C 20,7 C 22,7 C 22,7 C 0,9 C 61 % 70 % 24 % 1010,1 hPa 0,0 l/m 3,1 km/h (1 Bft) S 180 0 min 0,0 UV-I 13,9 C 22,7 C 6,3 km/h (2 Bft)
28.06.2014 17:40 21,7 C 25,8 C 20,6 C 22,4 C 22,4 C 0,7 C 61 % 71 % 18 % 1009,8 hPa 0,0 l/m 3,7 km/h (1 Bft) SW 225 0 min 0,0 UV-I 13,8 C 22,4 C 3,7 km/h (1 Bft)
28.06.2014 17:45 21,6 C 25,8 C 20,5 C 22,2 C 22,2 C 0,6 C 61 % 71 % 16 % 1009,8 hPa 0,0 l/m 4,2 km/h (1 Bft) NW 315 0 min 0,0 UV-I 13,7 C 22,2 C 7,6 km/h (2 Bft)
28.06.2014 17:50 21,5 C 25,8 C 20,5 C 21,9 C 21,9 C 0,4 C 62 % 71 % 11 % 1009,8 hPa 0,0 l/m 3,7 km/h (1 Bft) W 270 0 min 0,0 UV-I 13,9 C 21,9 C 4,3 km/h (1 Bft)
28.06.2014 17:55 21,5 C 25,9 C 20,4 C 21,8 C 21,8 C 0,3 C 63 % 72 % 8 % 1009,8 hPa 0,0 l/m 3,4 km/h (1 Bft) SW 225 0 min 0,0 UV-I 14,2 C 21,8 C 4,0 km/h (1 Bft)
28.06.2014 18:00 21,3 C 25,9 C 20,3 C 21,5 C 21,5 C 0,2 C 63 % 72 % 5 % 1009,9 hPa 0,0 l/m 3,4 km/h (1 Bft) SW 225 0 min 0,0 UV-I 14,0 C 21,5 C 2,9 km/h (1 Bft)
28.06.2014 18:05 21,2 C 25,9 C 20,3 C 21,1 C 21,0 C 0,0 C 64 % 72 % 0 % 1009,9 hPa 0,0 l/m 3,1 km/h (1 Bft) S-SW 202 0 min 0,0 UV-I 14,1 C 21,0 C 4,0 km/h (1 Bft)
28.06.2014 18:10 21,1 C 25,9 C 20,0 C 20,7 C 20,0 C 0,0 C 65 % 73 % 0 % 1009,9 hPa 0,0 l/m 2,9 km/h (1 Bft) W-SW 247 0 min 0,0 UV-I 14,3 C 20,0 C 2,6 km/h (1 Bft)
28.06.2014 18:15 20,8 C 25,9 C 19,9 C 20,4 C 19,7 C 0,0 C 66 % 74 % 0 % 1009,9 hPa 0,0 l/m 2,7 km/h (1 Bft) S-SW 202 0 min 0,0 UV-I 14,2 C 19,7 C 2,7 km/h (1 Bft)
28.06.2014 18:20 20,6 C 25,9 C 19,9 C 20,2 C 19,4 C 0,0 C 67 % 75 % 0 % 1009,8 hPa 0,0 l/m 2,7 km/h (1 Bft) W-SW 247 0 min 0,0 UV-I 14,3 C 19,4 C 3,7 km/h (1 Bft)
28.06.2014 18:25 20,5 C 25,9 C 19,7 C 20,1 C 19,4 C 0,0 C 68 % 75 % 0 % 1009,8 hPa 0,0 l/m 2,4 km/h (1 Bft) S-SO 157 0 min 0,0 UV-I 14,4 C 19,4 C 1,8 km/h (1 Bft)
28.06.2014 18:30 20,4 C 25,9 C 19,7 C 20,1 C 19,6 C 0,0 C 69 % 76 % 0 % 1009,8 hPa 0,0 l/m 1,3 km/h (1 Bft) W-SW 247 0 min 0,0 UV-I 14,5 C 19,6 C 1,6 km/h (1 Bft)
28.06.2014 18:35 20,3 C 25,9 C 19,6 C 20,1 C 19,8 C 0,0 C 69 % 76 % 0 % 1009,8 hPa 0,0 l/m 1,1 km/h (1 Bft) S 180 0 min 0,0 UV-I 14,4 C 19,8 C 1,6 km/h (1 Bft)
28.06.2014 18:41 20,2 C 26,0 C 19,5 C 20,1 C 19,8 C 0,0 C 71 % 77 % 0 % 1009,8 hPa 0,0 l/m 0,2 km/h (0 Bft) N 0 0 min 0,0 UV-I 14,8 C 19,8 C 0,0 km/h (0 Bft)
28.06.2014 19:01 20,0 C 26,0 C 19,2 C 19,7 C 19,0 C 0,0 C 74 % 79 % 0 % 1009,5 hPa 0,0 l/m 0,0 km/h (0 Bft) S-SO 157 0 min 0,0 UV-I 15,2 C 19,0 C 0,0 km/h (0 Bft)
28.06.2014 19:02 20,0 C 26,0 C 19,2 C 19,7 C 19,0 C 0,0 C 74 % 79 % 0 % 1009,5 hPa 0,0 l/m 0,0 km/h (0 Bft) S-SO 157 0 min 0,0 UV-I 15,2 C 19,0 C 0,0 km/h (0 Bft)
28.06.2014 19:05 20,0 C 26,0 C 19,2 C 19,7 C 19,0 C 0,0 C 74 % 79 % 0 % 1009,5 hPa 0,0 l/m 0,0 km/h (0 Bft) S-SO 157 0 min 0,0 UV-I 15,2 C 19,0 C 0,0 km/h (0 Bft)
28.06.2014 19:10 20,0 C 26,0 C 19,1 C 19,6 C 18,9 C 0,0 C 74 % 79 % 0 % 1009,5 hPa 0,0 l/m 0,0 km/h (0 Bft) S-SO 157 0 min 0,0 UV-I 15,2 C 18,9 C 0,0 km/h (0 Bft)
28.06.2014 19:15 19,9 C 26,0 C 19,1 C 19,5 C 18,7 C 0,0 C 74 % 80 % 0 % 1009,5 hPa 0,0 l/m 0,0 km/h (0 Bft) S-SO 157 0 min 0,0 UV-I 15,1 C 18,7 C 0,0 km/h (0 Bft)
28.06.2014 19:20 19,9 C 26,0 C 18,9 C 19,5 C 18,6 C 0,0 C 75 % 80 % 0 % 1009,7 hPa 0,0 l/m 0,0 km/h (0 Bft) W-SW 247 0 min 0,0 UV-I 15,3 C 18,6 C 0,0 km/h (0 Bft)
28.06.2014 19:25 19,7 C 26,0 C 18,9 C 19,3 C 18,5 C 0,0 C 76 % 80 % 0 % 1009,7 hPa 0,0 l/m 0,0 km/h (0 Bft) S 180 0 min 0,0 UV-I 15,3 C 18,5 C 0,0 km/h (0 Bft)
28.06.2014 19:30 19,6 C 26,0 C 18,8 C 19,2 C 18,5 C 0,0 C 76 % 81 % 0 % 1009,7 hPa 0,0 l/m 0,0 km/h (0 Bft) S 180 0 min 0,0 UV-I 15,2 C 18,5 C 0,0 km/h (0 Bft)
28.06.2014 19:35 19,6 C 26,0 C 18,8 C 19,3 C 18,7 C 0,0 C 76 % 81 % 0 % 1009,7 hPa 0,0 l/m 0,0 km/h (0 Bft) S-SO 157 0 min 0,0 UV-I 15,2 C 18,7 C 0,0 km/h (0 Bft)
28.06.2014 19:40 19,4 C 26,0 C 18,8 C 19,2 C 18,7 C 0,0 C 76 % 81 % 0 % 1009,4 hPa 0,0 l/m 0,0 km/h (0 Bft) O-NO 67 0 min 0,0 UV-I 15,1 C 18,7 C 0,0 km/h (0 Bft)
28.06.2014 19:45 19,2 C 26,0 C 18,7 C 19,1 C 18,8 C 0,0 C 77 % 81 % 0 % 1009,4 hPa 0,0 l/m 0,0 km/h (0 Bft) O 90 0 min 0,0 UV-I 15,1 C 18,8 C 0,0 km/h (0 Bft)
28.06.2014 19:50 19,1 C 26,0 C 18,7 C 19,0 C 18,9 C 0,0 C 77 % 81 % 0 % 1009,4 hPa 0,0 l/m 0,2 km/h (0 Bft) O-NO 67 0 min 0,0 UV-I 15,0 C 18,9 C 0,0 km/h (0 Bft)
28.06.2014 19:55 19,1 C 26,0 C 18,7 C 19,1 C 19,0 C 0,0 C 78 % 82 % 0 % 1009,4 hPa 0,0 l/m 0,2 km/h (0 Bft) O-NO 67 0 min 0,0 UV-I 15,2 C 19,0 C 0,0 km/h (0 Bft)
28.06.2014 20:00 19,0 C 26,0 C 18,7 C 19,1 C 19,1 C 0,1 C 78 % 82 % 3 % 1009,1 hPa 0,0 l/m 0,0 km/h (0 Bft) NO 45 0 min 0,0 UV-I 15,1 C 19,1 C 0,0 km/h (0 Bft)
28.06.2014 20:05 19,1 C 26,0 C 18,6 C 19,1 C 19,1 C 0,0 C 78 % 82 % 0 % 1009,1 hPa 0,0 l/m 0,0 km/h (0 Bft) NO 45 0 min 0,0 UV-I 15,2 C 19,1 C 0,0 km/h (0 Bft)
28.06.2014 20:10 19,1 C 26,0 C 18,7 C 19,2 C 19,2 C 0,1 C 77 % 81 % 3 % 1009,1 hPa 0,0 l/m 0,0 km/h (0 Bft) O-SO 112 0 min 0,0 UV-I 15,0 C 19,2 C 0,0 km/h (0 Bft)
28.06.2014 20:15 18,9 C 26,0 C 18,6 C 19,2 C 19,2 C 0,3 C 76 % 81 % 8 % 1009,1 hPa 0,0 l/m 0,0 km/h (0 Bft) O-NO 67 0 min 0,0 UV-I 14,6 C 19,2 C 0,0 km/h (0 Bft)
28.06.2014 20:20 18,9 C 26,0 C 18,4 C 19,1 C 19,1 C 0,2 C 75 % 81 % 5 % 1008,8 hPa 0,0 l/m 0,0 km/h (0 Bft) O-SO 112 0 min 0,0 UV-I 14,4 C 19,1 C 0,0 km/h (0 Bft)
28.06.2014 20:25 18,8 C 26,0 C 18,5 C 18,9 C 18,9 C 0,1 C 75 % 81 % 3 % 1008,8 hPa 0,0 l/m 0,0 km/h (0 Bft) O-NO 67 0 min 0,0 UV-I 14,3 C 18,9 C 0,0 km/h (0 Bft)
28.06.2014 20:30 18,7 C 26,0 C 18,2 C 18,7 C 18,7 C 0,0 C 74 % 80 % 0 % 1008,8 hPa 0,0 l/m 0,0 km/h (0 Bft) O-SO 112 0 min 0,0 UV-I 14,0 C 18,7 C 0,0 km/h (0 Bft)
28.06.2014 20:35 18,7 C 26,0 C 18,3 C 18,7 C 18,6 C 0,0 C 74 % 80 % 0 % 1008,8 hPa 0,0 l/m 0,0 km/h (0 Bft) O-NO 67 0 min 0,0 UV-I 14,0 C 18,6 C 0,0 km/h (0 Bft)
28.06.2014 20:40 18,7 C 26,1 C 18,1 C 18,6 C 18,3 C 0,0 C 74 % 79 % 0 % 1008,6 hPa 0,0 l/m 0,2 km/h (0 Bft) N 360 0 min 0,0 UV-I 14,0 C 18,3 C 0,0 km/h (0 Bft)
28.06.2014 20:45 18,5 C 26,1 C 18,1 C 18,4 C 18,2 C 0,0 C 74 % 80 % 0 % 1008,6 hPa 0,0 l/m 0,2 km/h (0 Bft) W-NW 292 0 min 0,0 UV-I 13,8 C 18,2 C 0,0 km/h (0 Bft)
28.06.2014 20:50 18,4 C 26,1 C 18,0 C 18,3 C 18,0 C 0,0 C 75 % 80 % 0 % 1008,6 hPa 0,0 l/m 0,2 km/h (0 Bft) W-SW 247 0 min 0,0 UV-I 13,9 C 18,0 C 0,0 km/h (0 Bft)
28.06.2014 20:55 18,4 C 26,1 C 17,9 C 18,2 C 17,9 C 0,0 C 75 % 80 % 0 % 1008,6 hPa 0,0 l/m 0,2 km/h (0 Bft) NO 45 0 min 0,0 UV-I 13,9 C 17,9 C 0,0 km/h (0 Bft)
28.06.2014 21:00 18,3 C 26,1 C 17,8 C 18,1 C 17,8 C 0,0 C 75 % 80 % 0 % 1008,3 hPa 0,0 l/m 0,0 km/h (0 Bft) N-NO 22 0 min 0,0 UV-I 13,8 C 17,8 C 0,0 km/h (0 Bft)
28.06.2014 21:05 18,3 C 26,1 C 17,7 C 18,1 C 17,6 C 0,0 C 76 % 80 % 0 % 1008,3 hPa 0,0 l/m 0,0 km/h (0 Bft) SO 135 0 min 0,0 UV-I 14,0 C 17,6 C 0,0 km/h (0 Bft)
28.06.2014 21:10 18,1 C 26,1 C 17,7 C 17,9 C 17,5 C 0,0 C 76 % 81 % 0 % 1008,3 hPa 0,0 l/m 0,0 km/h (0 Bft) O 90 0 min 0,0 UV-I 13,8 C 17,5 C 0,0 km/h (0 Bft)
28.06.2014 21:15 18,1 C 26,1 C 17,6 C 17,9 C 17,4 C 0,0 C 77 % 81 % 0 % 1008,3 hPa 0,0 l/m 0,0 km/h (0 Bft) O-SO 112 0 min 0,0 UV-I 14,0 C 17,4 C 0,0 km/h (0 Bft)
28.06.2014 21:20 18,0 C 26,1 C 17,6 C 17,8 C 17,3 C 0,0 C 77 % 81 % 0 % 1007,9 hPa 0,0 l/m 0,0 km/h (0 Bft) NO 45 0 min 0,0 UV-I 13,9 C 17,3 C 0,0 km/h (0 Bft)
28.06.2014 21:25 17,9 C 26,1 C 17,5 C 17,7 C 17,2 C 0,0 C 77 % 81 % 0 % 1007,9 hPa 0,0 l/m 0,0 km/h (0 Bft) O-NO 67 0 min 0,0 UV-I 13,8 C 17,2 C 0,0 km/h (0 Bft)
28.06.2014 21:30 17,9 C 26,1 C 17,3 C 17,6 C 17,0 C 0,0 C 77 % 82 % 0 % 1007,9 hPa 0,0 l/m 0,0 km/h (0 Bft) NO 45 0 min 0,0 UV-I 13,8 C 17,0 C 0,0 km/h (0 Bft)
28.06.2014 21:35 17,7 C 26,1 C 17,2 C 17,4 C 16,8 C 0,0 C 78 % 82 % 0 % 1007,9 hPa 0,0 l/m 0,0 km/h (0 Bft) NO 45 0 min 0,0 UV-I 13,8 C 16,8 C 0,0 km/h (0 Bft)
28.06.2014 21:40 17,7 C 26,1 C 17,2 C 17,4 C 16,8 C 0,0 C 78 % 82 % 0 % 1008,1 hPa 0,0 l/m 0,0 km/h (0 Bft) NO 45 0 min 0,0 UV-I 13,8 C 16,8 C 0,0 km/h (0 Bft)
28.06.2014 21:45 17,5 C 26,1 C 17,2 C 17,2 C 16,6 C 0,0 C 78 % 82 % 0 % 1008,1 hPa 0,0 l/m 0,0 km/h (0 Bft) O-NO 67 0 min 0,0 UV-I 13,6 C 16,6 C 0,0 km/h (0 Bft)
28.06.2014 21:50 17,4 C 26,1 C 17,1 C 17,1 C 16,6 C 0,0 C 78 % 82 % 0 % 1008,1 hPa 0,0 l/m 0,0 km/h (0 Bft) O-NO 67 0 min 0,0 UV-I 13,5 C 16,6 C 0,0 km/h (0 Bft)
28.06.2014 21:55 17,5 C 26,1 C 17,0 C 17,2 C 16,6 C 0,0 C 78 % 82 % 0 % 1008,1 hPa 0,0 l/m 0,0 km/h (0 Bft) N-NO 22 0 min 0,0 UV-I 13,6 C 16,6 C 0,0 km/h (0 Bft)
28.06.2014 22:00 17,3 C 26,1 C 17,1 C 17,0 C 16,5 C 0,0 C 79 % 82 % 0 % 1008,0 hPa 0,0 l/m 0,0 km/h (0 Bft) NO 45 0 min 0,0 UV-I 13,6 C 16,5 C 0,0 km/h (0 Bft)
28.06.2014 22:05 17,3 C 26,1 C 17,1 C 17,0 C 16,5 C 0,0 C 80 % 82 % 0 % 1008,0 hPa 0,0 l/m 0,0 km/h (0 Bft) NO 45 0 min 0,0 UV-I 13,8 C 16,5 C 0,0 km/h (0 Bft)
28.06.2014 22:10 17,3 C 26,1 C 17,0 C 17,0 C 16,5 C 0,0 C 80 % 83 % 0 % 1008,0 hPa 0,0 l/m 0,0 km/h (0 Bft) NO 45 0 min 0,0 UV-I 13,8 C 16,5 C 0,0 km/h (0 Bft)
28.06.2014 22:15 17,2 C 26,1 C 16,9 C 17,0 C 16,5 C 0,0 C 81 % 83 % 0 % 1008,0 hPa 0,0 l/m 0,0 km/h (0 Bft) NO 45 0 min 0,0 UV-I 13,9 C 16,5 C 0,0 km/h (0 Bft)
28.06.2014 22:20 17,3 C 26,1 C 16,9 C 17,0 C 16,5 C 0,0 C 81 % 83 % 0 % 1007,9 hPa 0,0 l/m 0,0 km/h (0 Bft) SO 135 0 min 0,0 UV-I 14,0 C 16,5 C 0,0 km/h (0 Bft)
28.06.2014 22:25 17,2 C 26,1 C 16,8 C 16,9 C 16,4 C 0,0 C 81 % 83 % 0 % 1007,9 hPa 0,0 l/m 0,0 km/h (0 Bft) W 270 0 min 0,0 UV-I 13,9 C 16,4 C 0,0 km/h (0 Bft)
28.06.2014 22:30 17,1 C 26,1 C 16,8 C 16,9 C 16,4 C 0,0 C 82 % 84 % 0 % 1007,9 hPa 0,0 l/m 0,0 km/h (0 Bft) N-NW 337 0 min 0,0 UV-I 14,0 C 16,4 C 0,0 km/h (0 Bft)
28.06.2014 22:35 17,1 C 26,1 C 16,8 C 16,9 C 16,4 C 0,0 C 82 % 84 % 0 % 1007,9 hPa 0,0 l/m 0,0 km/h (0 Bft) N-NW 337 0 min 0,0 UV-I 14,0 C 16,4 C 0,0 km/h (0 Bft)
28.06.2014 22:40 17,1 C 26,1 C 16,8 C 16,9 C 16,4 C 0,0 C 82 % 84 % 0 % 1007,8 hPa 0,0 l/m 0,0 km/h (0 Bft) W-SW 247 0 min 0,0 UV-I 14,0 C 16,4 C 0,0 km/h (0 Bft)
28.06.2014 22:45 17,0 C 26,1 C 16,8 C 16,8 C 16,4 C 0,0 C 82 % 84 % 0 % 1007,8 hPa 0,0 l/m 0,0 km/h (0 Bft) NW 315 0 min 0,0 UV-I 13,9 C 16,4 C 0,0 km/h (0 Bft)
28.06.2014 22:50 16,9 C 26,1 C 16,8 C 16,7 C 16,4 C 0,0 C 82 % 84 % 0 % 1007,8 hPa 0,0 l/m 0,0 km/h (0 Bft) W 270 0 min 0,0 UV-I 13,8 C 16,4 C 0,0 km/h (0 Bft)
28.06.2014 22:55 16,9 C 26,1 C 16,7 C 16,7 C 16,4 C 0,0 C 82 % 84 % 0 % 1007,8 hPa 0,0 l/m 0,0 km/h (0 Bft) W 270 0 min 0,0 UV-I 13,8 C 16,4 C 0,0 km/h (0 Bft)
28.06.2014 23:00 16,8 C 26,1 C 16,7 C 16,7 C 16,5 C 0,0 C 82 % 84 % 0 % 1007,6 hPa 0,0 l/m 0,0 km/h (0 Bft) W-SW 247 0 min 0,0 UV-I 13,7 C 16,5 C 0,0 km/h (0 Bft)
28.06.2014 23:05 16,9 C 26,1 C 16,7 C 16,8 C 16,5 C 0,0 C 82 % 84 % 0 % 1007,6 hPa 0,0 l/m 0,0 km/h (0 Bft) SW 225 0 min 0,0 UV-I 13,8 C 16,5 C 0,0 km/h (0 Bft)
28.06.2014 23:10 16,8 C 26,1 C 16,7 C 16,7 C 16,5 C 0,0 C 83 % 84 % 0 % 1007,6 hPa 0,0 l/m 0,0 km/h (0 Bft) SW 225 0 min 0,0 UV-I 13,9 C 16,5 C 0,0 km/h (0 Bft)
28.06.2014 23:15 16,8 C 26,1 C 16,7 C 16,7 C 16,5 C 0,0 C 83 % 84 % 0 % 1007,6 hPa 0,0 l/m 0,0 km/h (0 Bft) W-SW 247 0 min 0,0 UV-I 13,9 C 16,5 C 0,0 km/h (0 Bft)
28.06.2014 23:20 16,7 C 26,1 C 16,7 C 16,6 C 16,5 C 0,0 C 83 % 84 % 0 % 1007,5 hPa 0,0 l/m 0,0 km/h (0 Bft) W 270 0 min 0,0 UV-I 13,8 C 16,5 C 0,0 km/h (0 Bft)
28.06.2014 23:25 16,7 C 26,1 C 16,7 C 16,6 C 16,5 C 0,0 C 83 % 84 % 0 % 1007,5 hPa 0,0 l/m 0,0 km/h (0 Bft) O-NO 67 0 min 0,0 UV-I 13,8 C 16,5 C 0,0 km/h (0 Bft)
28.06.2014 23:30 16,6 C 26,1 C 16,6 C 16,6 C 16,5 C 0,0 C 83 % 85 % 0 % 1007,5 hPa 0,0 l/m 0,0 km/h (0 Bft) NO 45 0 min 0,0 UV-I 13,7 C 16,5 C 0,0 km/h (0 Bft)
28.06.2014 23:35 16,7 C 26,1 C 16,7 C 16,6 C 16,5 C 0,0 C 83 % 85 % 0 % 1007,5 hPa 0,0 l/m 0,0 km/h (0 Bft) NO 45 0 min 0,0 UV-I 13,8 C 16,5 C 0,0 km/h (0 Bft)
28.06.2014 23:40 16,7 C 26,1 C 16,6 C 16,7 C 16,6 C 0,0 C 84 % 85 % 0 % 1007,4 hPa 0,0 l/m 0,0 km/h (0 Bft) NW 315 0 min 0,0 UV-I 14,0 C 16,6 C 0,0 km/h (0 Bft)
28.06.2014 23:45 16,7 C 26,1 C 16,7 C 16,7 C 16,6 C 0,0 C 84 % 85 % 0 % 1007,4 hPa 0,0 l/m 0,0 km/h (0 Bft) W-SW 247 0 min 0,0 UV-I 14,0 C 16,6 C 0,0 km/h (0 Bft)
28.06.2014 23:50 16,6 C 26,1 C 16,6 C 16,6 C 16,6 C 0,0 C 84 % 85 % 0 % 1007,4 hPa 0,0 l/m 0,0 km/h (0 Bft) W-SW 247 0 min 0,0 UV-I 13,9 C 16,6 C 0,0 km/h (0 Bft)
28.06.2014 23:55 16,5 C 26,1 C 16,6 C 16,6 C 16,6 C 0,1 C 84 % 85 % 0 % 1007,4 hPa 0,0 l/m 0,0 km/h (0 Bft) W-SW 247 0 min 0,0 UV-I 13,8 C 16,6 C 0,0 km/h (0 Bft)
_ Min-Zeit 01:40 09:45 06:35 00:35 00:30 00:00 15:05 15:05 00:00 23:40 - 00:00 - - - 00:00 04:40 00:30 00:00
Minimum _ 13,1 C 24,9 C 13,6 C 13,5 C 13,3 C 0,0 C 45 % 59 % 0 % 1007,4 hPa - 0,0 km/h (0 Bft) - - - 0,0 UV-I 10,6 C 13,3 C 0,0 km/h (0 Bft)
_ Max-Zeit 14:40 20:40 14:40 14:40 14:40 08:55 07:40 07:10 07:50 00:00 06:20 16:35 - - 13:01 13:50 12:35 14:40 16:30
Maximum _ 27,6 C 26,1 C 24,4 C 32,6 C 32,6 C 8,4 C 88 % 91 % 100 % 1013,5 hPa 0,7 l/m 7,4 km/h
W-SW (2 Bft)
- - 20 min 0,1 UV-I 16,0 C 32,6 C 19,3 km/h
W (3 Bft)
Durchschnitt _ 18,6 C 25,5 C 18,0 C 20,2 C 20,0 C 1,7 C 73 % 80 % 35 % 1010,9 hPa #1,4 l/m 1,1 km/h (1 Bft) S - #6:35 h 0,1 UV-I 13,4 C 20,0 C 1,7 km/h (1 Bft)
2014 www.wetterstation-wechselburg.de